Norton, KS

8:17 AM CDT on May 05, 2015 (GMT -0500)
Brewster | | Change Station
CLOSE
Current Station
Airport
Location: Holdrege,
Elevation: 2310 ft
Nearby Weather Stations

Elev 2310 ft 40.45 °N, 99.34 °W | Updated 22 minutes ago

Overcast
Overcast
57 °F
Feels Like 57 °F
N
0
Wind Variable Wind from North

Today
High -- | Low -- °F
--% Chance of Precip.
Yesterday
High -- | Low -- °F
Precip. -- in
6:35 AM 8:37 PM
Full, 98% visible
Pressure 30.04 in
Visibility 1.5 miles
Clouds Mostly Cloudy 200 ft
Mostly Cloudy 1200 ft
Overcast 1700 ft
Dew Point 56 °F
Humidity 97%
Rainfall 0.20 in
Snow Depth Not available.
UV 0 out of 12
Pollen 4.90 out of 12
Air Quality Not available.
Flu Activity Sporadic
METAR KHDE 051255Z AUTO 00000KT 1 1/2SM BR BKN002 BKN012 OVC017 14/13 A3004 RMK AO2 T01390134

More Conditions Fewer Conditions

Pressure 30.04 in
Visibility 1.5 miles
Clouds Mostly Cloudy 200 ft
Mostly Cloudy 1200 ft
Overcast 1700 ft
Dew Point 56 °F
Humidity 97%
Rainfall 0.20 in
Snow Depth Not available.
UV 0 out of 12
Pollen 4.90 out of 12
Air Quality Not available.
Flu Activity Sporadic
METAR KHDE 051255Z AUTO 00000KT 1 1/2SM BR BKN002 BKN012 OVC017 14/13 A3004 RMK AO2 T01390134

More Conditions Fewer Conditions

Nepal has a long way to go to dig out and rebuild from a devastating earthquake. We have teamed up with several charities and organizations to make contributing to the relief effort as easy as possible.
How you can help: Portlight Strategies | Red Cross

10-Day Weather Forecast

Almanac

Astronomy

May. 05, 2015 Rise Set
Actual Time
Civil Twilight
Nautical Twilight
Astronomical Twilight
Moon
Length of Visible Light
Length of Day
Tomorrow will be .
, % of the Moon is Illuminated

Today's Extremes

State Highs State Lows

Community

WunderPhotos

Upload Photos

1,818,878 photos uploaded!

WunderBlogs® & News

Nearby

Air Quality

  Air Quality AQ Index Pollutant
Not available.

Snow Depth

Station Depth Elevation

Earthquake Activity

City Distance Mag. Time & Date
Minimum magnitude displayed is 2.5.

Coastal Water Temperatures

Place Temperature

Stations

Nearby Weather Stations

Station Location Temp. Windchill Dew Point Humidity Wind Precip. Elev Updated Type